Jackson Evers International Airport
KJAN : now visible

Airfield :











YOU CAN JOIN US ON...

 
LOGIN :

Register | Disclaimer

   EN    FR    IT 

 









Legend :    VFR   Marginal VFR   IFR   Intensive IFR   Very Intensive IFR
Visi :
Ceiling :
>= 8 km
>= 3000ft
5 to 8 km
1000 to 3000 ft
1500m to 5 km
500 to 1000 ft
800 to 1500m
200 to 500 ft
< 800m
< 200 ft
Symbols :   Thunderstorms  Fog  Heavy snow  Heavy precipitations  Wind > 20 kt






- Airport Elevation : 346 ft
- IATA code : JAN


KJAN - Jackson Evers International

CURRENT METAR :
  • 192154Z 03004KT 6SM -RA BR BKN007 OVC011 09/07 A3027 RMK AO2 CIG 005V009 SLP251 P0003 T00940072

EXPIRED METARs :
  • 192054Z 03006KT 10SM -RA OVC007 09/07 A3028 RMK AO2 SLP253 P0000 60000 T00890072 56013
  • 191954Z 03005KT 9SM -RA OVC006 09/07 A3029 RMK AO2 RAB04 SLP255 P0000 T00890072

TAF KJAN
Valid from the 19 at 18:00 until the 20 at 18:00 UTC


191738Z 1918/2018 02009KT P6SM VCSH OVC006
FM200300 05007KT 6SM -RA OVC010
FM200800 04006KT 4SM RA OVC003
FM201300 01010KT 5SM -RA BR OVC004
FM201400 01011G19KT 5SM -RA BR OVC008



MET'MAP, your aeronautical weather chart ! - Copyright ORBIFLY December 2007 - Disclaimer

ORBIFLY MET'MAP TEAM :

Programming & Development : Alexandra Zaïnal
Concept & original design : Baudouin d'Aumeries
Assistance for programming : Marc-Olivier Méhu
Technical & hardware support : Manuel Goepfert

Contact : metmap@orbifly.com




SOURCES & CREDITS :

   NOAA       Earth
Advisory